Time;durP1;ratioP1;P1;durP2;ratioP2;P2;SDS_P1;SDS_P2;PMS_P1;PMS_P2;Temp;Humidity;BMP_temperature;BMP_pressure;BME280_temperature;BME280_humidity;BME280_pressure;Samples;Min_cycle;Max_cycle;Signal;HPM_P1;HPM_P2
2023/04/16 00:01:24;;;;;;;0.10;0.10;;;;;;;;;;6343870;22;20033;-88
2023/04/16 00:03:49;;;;;;;0.10;0.10;;;9.70;99.90;;;;;;6343887;22;20333;-88
2023/04/16 00:06:15;;;;;;;0.10;0.10;;;;;;;;;;6345073;22;20622;-89
2023/04/16 00:08:42;;;;;;;0.10;0.10;;;9.50;99.90;;;;;;6345501;22;20010;-88
2023/04/16 00:11:07;;;;;;;0.00;0.00;;;9.70;99.90;;;;;;6345353;22;20079;-89
2023/04/16 00:13:34;;;;;;;0.10;0.10;;;9.80;99.90;;;;;;6345729;22;19999;-89
2023/04/16 00:16:00;;;;;;;0.00;0.00;;;;;;;;;;6346382;22;20323;-89
2023/04/16 00:18:26;;;;;;;0.00;0.00;;;9.80;99.90;;;;;;6345851;22;20021;-89
2023/04/16 00:20:52;;;;;;;0.10;0.10;;;9.90;99.90;;;;;;6346159;22;20002;-90
2023/04/16 00:23:18;;;;;;;0.00;0.00;;;10.00;99.90;;;;;;6344700;22;20006;-89
2023/04/16 00:25:44;;;;;;;0.00;0.00;;;9.80;99.90;;;;;;6345237;22;20002;-89
2023/04/16 00:28:09;;;;;;;0.00;0.00;;;9.90;99.90;;;;;;6342997;22;20006;-88
2023/04/16 00:30:35;;;;;;;0.00;0.00;;;9.80;99.90;;;;;;6344310;22;20006;-89
2023/04/16 00:33:01;;;;;;;0.00;0.00;;;9.80;99.90;;;;;;6344127;22;19998;-89
2023/04/16 00:35:27;;;;;;;0.05;0.05;;;9.70;99.90;;;;;;6344333;22;20032;-90
2023/04/16 00:37:52;;;;;;;0.00;0.00;;;9.90;99.90;;;;;;6343966;22;19994;-87
2023/04/16 00:40:18;;;;;;;0.10;0.10;;;9.80;99.90;;;;;;6344883;22;20026;-89
2023/04/16 00:42:45;;;;;;;0.00;0.00;;;9.80;99.90;;;;;;6345453;22;20421;-91
2023/04/16 00:45:10;;;;;;;0.00;0.00;;;9.90;99.90;;;;;;6345096;22;20002;-89
2023/04/16 00:47:36;;;;;;;0.00;0.00;;;9.80;99.90;;;;;;6344350;22;20002;-90
2023/04/16 00:50:03;;;;;;;0.00;0.00;;;10.00;99.90;;;;;;6342360;22;20006;-88
2023/04/16 00:52:31;;;;;;;0.10;0.10;;;9.70;99.90;;;;;;6344004;22;20009;-89
2023/04/16 00:54:58;;;;;;;0.10;0.10;;;9.70;99.90;;;;;;6344233;22;19998;-89
2023/04/16 00:57:23;;;;;;;0.10;0.10;;;9.70;99.90;;;;;;6343362;22;20345;-88
2023/04/16 00:59:50;;;;;;;0.00;0.00;;;9.80;99.90;;;;;;6344521;22;20028;-89
2023/04/16 01:02:15;;;;;;;0.10;0.10;;;9.70;99.90;;;;;;6343603;22;20040;-89
2023/04/16 01:04:41;;;;;;;0.10;0.10;;;9.70;99.90;;;;;;6345283;22;20430;-90
2023/04/16 01:07:07;;;;;;;0.10;0.10;;;9.50;99.90;;;;;;6343988;22;20032;-89
2023/04/16 01:09:33;;;;;;;0.08;0.08;;;;;;;;;;6345035;22;20099;-91
2023/04/16 01:11:58;;;;;;;0.10;0.10;;;9.60;99.90;;;;;;6344955;22;20009;-89
2023/04/16 01:14:24;;;;;;;0.00;0.00;;;9.60;99.90;;;;;;6345050;22;19994;-90
2023/04/16 01:16:49;;;;;;;0.10;0.10;;;9.50;99.90;;;;;;6345532;22;19998;-89
2023/04/16 01:19:15;;;;;;;0.00;0.00;;;9.50;99.90;;;;;;6344918;22;20014;-89
2023/04/16 01:21:40;;;;;;;0.00;0.00;;;9.60;99.90;;;;;;6340618;22;20002;-88
2023/04/16 01:24:06;;;;;;;0.10;0.10;;;;;;;;;;6342695;22;20417;-89
2023/04/16 01:26:32;;;;;;;0.00;0.00;;;9.80;99.90;;;;;;6343918;22;20006;-89
2023/04/16 01:28:58;;;;;;;0.10;0.10;;;9.70;99.90;;;;;;6345285;22;20089;-88
2023/04/16 01:31:24;;;;;;;0.00;0.00;;;9.90;99.90;;;;;;6344387;22;20191;-89
2023/04/16 01:33:50;;;;;;;0.00;0.00;;;10.00;99.90;;;;;;6344983;22;20013;-89
2023/04/16 01:36:16;;;;;;;0.10;0.10;;;;;;;;;;6344242;22;20085;-88
2023/04/16 01:38:41;;;;;;;0.10;0.10;;;10.00;99.90;;;;;;6344356;22;20003;-89
2023/04/16 01:41:07;;;;;;;0.00;0.00;;;10.00;99.90;;;;;;6344336;22;20012;-88
2023/04/16 01:43:32;;;;;;;0.00;0.00;;;10.00;99.90;;;;;;6345068;22;20007;-89
2023/04/16 01:46:16;;;;;;;0.00;0.00;;;10.10;99.90;;;;;;6345031;22;20002;-89
2023/04/16 01:48:42;;;;;;;0.10;0.10;;;;;;;;;;6344234;22;20010;-89
2023/04/16 01:51:08;;;;;;;0.00;0.00;;;10.10;99.90;;;;;;6343632;22;20002;-89
2023/04/16 01:53:35;;;;;;;0.00;0.00;;;10.20;99.90;;;;;;6344485;22;20375;-88
2023/04/16 01:56:00;;;;;;;0.00;0.00;;;9.90;99.90;;;;;;6344173;22;20022;-90
2023/04/16 01:58:28;;;;;;;0.00;0.00;;;9.90;99.90;;;;;;6344065;22;19998;-88
2023/04/16 02:00:54;;;;;;;0.00;0.00;;;;;;;;;;6343741;22;20009;-89
2023/04/16 02:03:22;;;;;;;0.10;0.10;;;9.70;99.90;;;;;;6344070;22;20006;-90
2023/04/16 02:05:48;;;;;;;0.03;0.03;;;9.70;99.90;;;;;;6347935;22;20021;-88
2023/04/16 02:08:14;;;;;;;0.10;0.10;;;10.60;99.90;;;;;;6347030;22;20003;-90
2023/04/16 02:10:39;;;;;;;0.05;0.05;;;9.60;99.90;;;;;;6345009;22;20826;-89
2023/04/16 02:13:05;;;;;;;0.10;0.10;;;9.50;99.90;;;;;;6345474;22;20006;-90
2023/04/16 02:15:30;;;;;;;0.10;0.10;;;9.40;99.90;;;;;;6345117;22;19995;-89
2023/04/16 02:17:56;;;;;;;0.10;0.10;;;9.40;99.90;;;;;;6344135;22;20006;-89
2023/04/16 02:20:22;;;;;;;0.00;0.00;;;9.80;99.90;;;;;;6344498;22;20009;-89
2023/04/16 02:22:48;;;;;;;0.10;0.10;;;;;;;;;;6344795;22;20002;-89
2023/04/16 02:25:13;;;;;;;0.10;0.10;;;9.90;99.90;;;;;;6347452;22;20056;-88
2023/04/16 02:27:39;;;;;;;0.10;0.10;;;9.80;99.90;;;;;;6346112;22;20453;-89
2023/04/16 02:30:09;;;;;;;0.10;0.10;;;9.80;99.90;;;;;;6346988;22;20017;-89
2023/04/16 02:32:35;;;;;;;0.10;0.10;;;9.80;99.90;;;;;;6347247;22;20043;-90
2023/04/16 02:35:02;;;;;;;0.10;0.10;;;9.90;99.90;;;;;;6347955;22;19995;-90
2023/04/16 02:37:28;;;;;;;0.10;0.10;;;9.80;99.90;;;;;;6347176;22;19998;-89
2023/04/16 02:39:54;;;;;;;0.10;0.10;;;9.80;99.90;;;;;;6347562;22;20094;-90
2023/04/16 02:42:19;;;;;;;0.00;0.00;;;9.80;99.90;;;;;;6344419;22;20002;-91
2023/04/16 02:44:45;;;;;;;0.10;0.10;;;;;;;;;;6346070;22;20006;-89
2023/04/16 02:47:11;;;;;;;0.10;0.10;;;9.60;99.90;;;;;;6345778;22;20002;-89
2023/04/16 02:49:37;;;;;;;0.10;0.10;;;;;;;;;;6344701;22;20077;-89
2023/04/16 02:52:02;;;;;;;0.10;0.10;;;;;;;;;;6343884;22;20002;-90
2023/04/16 02:54:28;;;;;;;0.00;0.00;;;;;;;;;;6345323;22;20081;-90
2023/04/16 02:56:54;;;;;;;0.08;0.08;;;;;;;;;;6345011;22;19998;-89
2023/04/16 02:59:20;;;;;;;0.05;0.05;;;9.40;99.90;;;;;;6345116;22;19998;-89
2023/04/16 03:01:46;;;;;;;0.10;0.10;;;;;;;;;;6345365;22;20009;-90
2023/04/16 03:04:11;;;;;;;0.00;0.00;;;9.30;99.90;;;;;;6342640;22;20030;-88
2023/04/16 03:06:37;;;;;;;0.00;0.00;;;;;;;;;;6343281;22;20417;-90
2023/04/16 03:09:03;;;;;;;0.00;0.00;;;9.10;99.90;;;;;;6341421;22;20030;-90
2023/04/16 03:11:29;;;;;;;0.10;0.10;;;;;;;;;;6343075;22;20405;-90
2023/04/16 03:13:55;;;;;;;0.00;0.00;;;9.00;99.90;;;;;;6342564;22;20005;-90
2023/04/16 03:16:21;;;;;;;0.10;0.10;;;9.00;99.90;;;;;;6342623;22;19995;-90
2023/04/16 03:18:47;;;;;;;0.10;0.10;;;;;;;;;;6342468;22;20071;-90
2023/04/16 03:21:13;;;;;;;0.10;0.10;;;;;;;;;;6342892;22;20009;-90
2023/04/16 03:23:38;;;;;;;0.10;0.10;;;;;;;;;;6342710;22;19999;-88
2023/04/16 03:26:05;;;;;;;0.10;0.10;;;9.00;99.90;;;;;;6341701;22;20007;-89
2023/04/16 03:28:30;;;;;;;0.00;0.00;;;9.00;99.90;;;;;;6342376;22;19998;-90
2023/04/16 03:30:56;;;;;;;0.00;0.00;;;9.20;99.90;;;;;;6342605;22;20002;-90
2023/04/16 03:33:22;;;;;;;0.10;0.10;;;;;;;;;;6343962;22;20002;-91
2023/04/16 03:35:57;;;;;;;0.10;0.10;;;8.90;99.90;;;;;;6343279;22;20002;-90
2023/04/16 03:38:24;;;;;;;0.00;0.00;;;;;;;;;;6342091;22;20005;-91
2023/04/16 03:40:50;;;;;;;0.10;0.10;;;;;;;;;;6344340;22;20026;-90
2023/04/16 03:43:16;;;;;;;0.10;0.10;;;9.00;99.90;;;;;;6345233;22;20338;-91
2023/04/16 03:45:45;;;;;;;0.10;0.10;;;9.00;99.90;;;;;;6344259;22;20006;-91
2023/04/16 03:48:10;;;;;;;0.10;0.10;;;8.90;99.90;;;;;;6344166;22;20440;-89
2023/04/16 03:50:36;;;;;;;0.10;0.10;;;8.80;99.90;;;;;;6343965;22;20006;-90
2023/04/16 03:53:01;;;;;;;0.00;0.00;;;8.80;99.90;;;;;;6346130;22;20005;-88
2023/04/16 03:55:27;;;;;;;0.00;0.00;;;8.80;99.90;;;;;;6345696;22;20005;-90
2023/04/16 03:57:54;;;;;;;0.10;0.10;;;;;;;;;;6345792;22;20002;-90
2023/04/16 04:00:20;;;;;;;0.10;0.10;;;;;;;;;;6372324;22;19998;-88
2023/04/16 04:02:46;;;;;;;0.10;0.10;;;8.70;99.90;;;;;;6344867;22;20497;-89
2023/04/16 04:05:11;;;;;;;0.10;0.10;;;8.60;99.90;;;;;;6344716;22;20018;-90
2023/04/16 04:07:37;;;;;;;0.10;0.10;;;8.70;99.90;;;;;;6344273;22;20009;-90
2023/04/16 04:10:02;;;;;;;0.10;0.10;;;8.70;99.90;;;;;;6344982;22;20001;-89
2023/04/16 04:12:28;;;;;;;0.10;0.10;;;;;;;;;;6344585;22;20047;-89
2023/04/16 04:14:54;;;;;;;0.10;0.10;;;;;;;;;;6344406;22;19998;-90
2023/04/16 04:17:20;;;;;;;0.10;0.10;;;;;;;;;;6343311;22;20021;-90
2023/04/16 04:19:46;;;;;;;0.00;0.00;;;8.60;99.90;;;;;;6344350;22;20358;-90
2023/04/16 04:22:11;;;;;;;0.00;0.00;;;8.60;99.90;;;;;;6344906;22;20009;-90
2023/04/16 04:24:37;;;;;;;0.10;0.10;;;8.60;99.90;;;;;;6345253;22;20002;-89
2023/04/16 04:27:02;;;;;;;0.10;0.10;;;8.60;99.90;;;;;;6344809;22;20010;-89
2023/04/16 04:29:28;;;;;;;0.10;0.10;;;8.50;99.90;;;;;;6344454;22;20081;-90
2023/04/16 04:31:54;;;;;;;0.10;0.10;;;;;;;;;;6343244;22;20006;-91
2023/04/16 04:34:20;;;;;;;0.00;0.00;;;8.60;99.90;;;;;;6344551;22;20003;-90
2023/04/16 04:36:45;;;;;;;0.10;0.10;;;8.70;99.90;;;;;;6344297;22;20006;-89
2023/04/16 04:39:11;;;;;;;0.10;0.10;;;8.50;99.90;;;;;;6343866;22;19998;-90
2023/04/16 04:41:36;;;;;;;0.10;0.10;;;8.50;99.90;;;;;;6345124;22;20450;-91
2023/04/16 04:44:02;;;;;;;0.10;0.10;;;8.40;99.90;;;;;;6344585;22;19998;-90
2023/04/16 04:46:27;;;;;;;0.10;0.10;;;9.30;99.90;;;;;;6343162;22;20013;-89
2023/04/16 04:48:53;;;;;;;0.00;0.00;;;8.50;99.90;;;;;;6344477;22;20007;-89
2023/04/16 04:51:18;;;;;;;0.10;0.10;;;8.50;99.90;;;;;;6343315;22;20005;-89
2023/04/16 04:53:43;;;;;;;0.10;0.10;;;8.50;99.90;;;;;;6344411;22;20418;-89
2023/04/16 04:56:09;;;;;;;0.10;0.10;;;8.50;99.90;;;;;;6344436;22;20005;-90
2023/04/16 04:58:34;;;;;;;0.10;0.10;;;8.40;99.90;;;;;;6344686;22;20379;-90
2023/04/16 05:01:00;;;;;;;0.00;0.00;;;8.50;99.90;;;;;;6344003;22;20013;-88
2023/04/16 05:03:25;;;;;;;0.10;0.10;;;8.50;99.90;;;;;;6346711;22;20028;-87
2023/04/16 05:05:51;;;;;;;0.10;0.10;;;8.60;99.90;;;;;;6346505;22;20010;-87
2023/04/16 05:08:16;;;;;;;0.10;0.10;;;8.60;99.90;;;;;;6346776;22;20002;-88
2023/04/16 05:10:42;;;;;;;0.10;0.10;;;;;;;;;;6346878;22;20013;-86
2023/04/16 05:13:08;;;;;;;0.10;0.10;;;8.50;99.90;;;;;;6347045;22;19995;-88
2023/04/16 05:15:33;;;;;;;0.10;0.10;;;8.50;99.90;;;;;;6345785;22;20073;-87
2023/04/16 05:17:59;;;;;;;0.10;0.10;;;8.60;99.90;;;;;;6346137;22;20054;-87
2023/04/16 05:20:24;;;;;;;0.00;0.00;;;8.50;99.90;;;;;;6344841;22;20132;-87
2023/04/16 05:22:50;;;;;;;0.00;0.00;;;;;;;;;;6344479;22;20016;-89
2023/04/16 05:25:16;;;;;;;0.10;0.10;;;8.40;99.90;;;;;;6344520;22;20056;-87
2023/04/16 05:27:42;;;;;;;0.10;0.10;;;;;;;;;;6345939;22;20010;-87
2023/04/16 05:30:08;;;;;;;0.10;0.10;;;8.40;99.90;;;;;;6344184;22;20394;-89
2023/04/16 05:32:34;;;;;;;0.10;0.10;;;8.40;99.90;;;;;;6345922;22;19998;-88
2023/04/16 05:35:00;;;;;;;0.10;0.10;;;8.40;99.90;;;;;;6344718;22;20009;-86
2023/04/16 05:37:25;;;;;;;0.10;0.10;;;8.70;99.90;;;;;;6343997;22;20302;-88
2023/04/16 05:39:51;;;;;;;0.10;0.10;;;8.50;99.90;;;;;;6345914;22;20002;-87
2023/04/16 05:42:16;;;;;;;0.00;0.00;;;8.50;99.90;;;;;;6345251;22;20048;-87
2023/04/16 05:44:42;;;;;;;0.10;0.10;;;8.50;99.90;;;;;;6343660;22;20010;-87
2023/04/16 05:47:08;;;;;;;0.10;0.10;;;8.60;99.90;;;;;;6342921;22;20002;-87
2023/04/16 05:49:35;;;;;;;0.10;0.10;;;8.50;99.90;;;;;;6344629;22;19999;-87
2023/04/16 05:52:01;;;;;;;0.10;0.10;;;8.50;99.90;;;;;;6343709;22;20002;-87
2023/04/16 05:54:27;;;;;;;0.10;0.10;;;;;;;;;;6344099;22;20008;-88
2023/04/16 05:56:52;;;;;;;0.10;0.10;;;8.50;99.90;;;;;;6372718;22;19994;-87
2023/04/16 05:59:18;;;;;;;0.10;0.10;;;9.70;99.90;;;;;;6343879;22;19991;-87
2023/04/16 06:01:43;;;;;;;0.10;0.10;;;8.60;99.90;;;;;;6342336;22;20048;-87
2023/04/16 06:04:09;;;;;;;0.10;0.10;;;8.60;99.90;;;;;;6345362;22;20037;-87
2023/04/16 06:06:36;;;;;;;0.10;0.10;;;8.60;99.90;;;;;;6344350;22;20085;-87
2023/04/16 06:09:02;;;;;;;0.10;0.10;;;;;;;;;;6343693;22;20643;-88
2023/04/16 06:11:29;;;;;;;0.10;0.10;;;8.60;99.90;;;;;;6343366;22;20002;-87
2023/04/16 06:13:55;;;;;;;0.10;0.10;;;;;;;;;;6344070;22;20082;-87
2023/04/16 06:16:21;;;;;;;0.00;0.00;;;;;;;;;;6371067;22;20010;-87
2023/04/16 06:18:47;;;;;;;0.10;0.10;;;;;;;;;;6344023;22;20030;-87
2023/04/16 06:21:13;;;;;;;0.10;0.10;;;;;;;;;;6343818;22;20002;-87
2023/04/16 06:23:39;;;;;;;0.10;0.10;;;;;;;;;;6345118;22;20063;-87
2023/04/16 06:26:05;;;;;;;0.05;0.05;;;8.60;99.90;;;;;;6344160;22;20006;-86
2023/04/16 06:28:30;;;;;;;0.10;0.10;;;8.60;99.90;;;;;;6344137;22;20009;-87
2023/04/16 06:30:56;;;;;;;0.00;0.00;;;;;;;;;;6342866;22;20006;-88
2023/04/16 06:33:22;;;;;;;0.10;0.10;;;;;;;;;;6344103;22;20310;-88
2023/04/16 06:35:48;;;;;;;0.10;0.10;;;;;;;;;;6345252;22;20474;-89
2023/04/16 06:38:14;;;;;;;0.10;0.10;;;8.80;99.90;;;;;;6344118;22;20002;-87
2023/04/16 06:40:39;;;;;;;0.10;0.10;;;8.80;99.90;;;;;;6344409;22;20052;-87
2023/04/16 06:43:06;;;;;;;0.10;0.10;;;;;;;;;;6343290;22;20010;-88
2023/04/16 06:45:31;;;;;;;0.10;0.10;;;8.90;99.90;;;;;;6343203;22;20429;-87
2023/04/16 06:47:57;;;;;;;0.10;0.10;;;;;;;;;;6346226;22;20003;-87
2023/04/16 06:50:25;;;;;;;0.10;0.10;;;9.20;99.90;;;;;;6345582;22;20006;-91
2023/04/16 06:52:51;;;;;;;0.10;0.10;;;;;;;;;;6345869;22;20002;-88
2023/04/16 06:55:17;;;;;;;0.00;0.00;;;;;;;;;;6343741;22;20077;-88
2023/04/16 06:57:43;;;;;;;0.10;0.10;;;;;;;;;;6344739;22;20375;-87
2023/04/16 07:00:09;;;;;;;0.10;0.10;;;9.20;99.90;;;;;;6345630;22;20650;-88
2023/04/16 07:02:37;;;;;;;0.10;0.10;;;9.30;99.90;;;;;;6344545;22;20009;-87
2023/04/16 07:05:02;;;;;;;0.10;0.10;;;9.30;99.90;;;;;;6345149;22;20077;-87
2023/04/16 07:07:28;;;;;;;0.10;0.10;;;9.30;99.90;;;;;;6344160;22;20002;-88
2023/04/16 07:09:53;;;;;;;0.10;0.10;;;9.30;99.90;;;;;;6344558;22;20085;-87
2023/04/16 07:12:19;;;;;;;0.10;0.10;;;9.30;99.90;;;;;;6344726;22;20081;-89
2023/04/16 07:14:45;;;;;;;0.10;0.10;;;9.30;99.90;;;;;;6344928;22;19995;-89
2023/04/16 07:17:11;;;;;;;0.10;0.10;;;9.30;99.90;;;;;;6347511;22;19998;-87
2023/04/16 07:19:37;;;;;;;0.10;0.10;;;;;;;;;;6346733;22;20135;-86
2023/04/16 07:22:02;;;;;;;0.10;0.10;;;9.30;99.90;;;;;;6346655;22;19998;-88
2023/04/16 07:24:28;;;;;;;0.10;0.10;;;9.30;99.90;;;;;;6346701;22;20013;-89
2023/04/16 07:26:54;;;;;;;0.10;0.10;;;9.40;99.90;;;;;;6345891;22;19998;-87
2023/04/16 07:29:19;;;;;;;0.00;0.00;;;10.70;99.90;;;;;;6346534;22;20059;-86
2023/04/16 07:31:45;;;;;;;0.10;0.10;;;9.60;99.90;;;;;;6345921;22;20089;-88
2023/04/16 07:34:11;;;;;;;0.10;0.10;;;9.80;99.90;;;;;;6345131;22;20140;-88
2023/04/16 07:36:36;;;;;;;0.10;0.10;;;;;;;;;;6375297;22;20002;-88
2023/04/16 07:39:03;;;;;;;0.10;0.10;;;10.00;99.90;;;;;;6347321;22;20357;-88
2023/04/16 07:41:29;;;;;;;0.10;0.10;;;;;;;;;;6346483;22;20002;-87
2023/04/16 07:43:55;;;;;;;0.00;0.00;;;;;;;;;;6346823;22;20028;-87
2023/04/16 07:46:21;;;;;;;0.00;0.00;;;;;;;;;;6346320;22;20348;-87
2023/04/16 07:48:47;;;;;;;0.00;0.00;;;10.30;99.90;;;;;;6346047;22;19994;-88
2023/04/16 07:51:13;;;;;;;0.00;0.00;;;;;;;;;;6375840;22;20427;-87
2023/04/16 07:53:39;;;;;;;0.00;0.00;;;;;;;;;;6346151;22;20392;-87
2023/04/16 07:56:05;;;;;;;0.00;0.00;;;10.20;99.90;;;;;;6346407;22;19994;-88
2023/04/16 07:58:30;;;;;;;0.00;0.00;;;10.20;99.90;;;;;;6343790;22;20002;-87
2023/04/16 08:00:56;;;;;;;0.10;0.10;;;10.30;99.90;;;;;;6345032;22;20059;-87
2023/04/16 08:03:22;;;;;;;0.00;0.00;;;;;;;;;;6344476;22;20030;-88
2023/04/16 08:05:48;;;;;;;0.00;0.00;;;10.40;99.90;;;;;;6345157;22;20017;-87
2023/04/16 08:08:13;;;;;;;0.00;0.00;;;10.50;99.90;;;;;;6345086;22;20085;-88
2023/04/16 08:10:39;;;;;;;0.10;0.10;;;10.40;99.90;;;;;;6345936;22;20002;-86
2023/04/16 08:13:04;;;;;;;0.10;0.10;;;10.40;99.90;;;;;;6345218;22;19994;-87
2023/04/16 08:15:30;;;;;;;0.00;0.00;;;10.30;99.90;;;;;;6343683;22;20093;-87
2023/04/16 08:17:56;;;;;;;0.03;0.03;;;10.20;99.90;;;;;;6345040;22;20003;-88
2023/04/16 08:20:21;;;;;;;0.10;0.10;;;10.20;99.90;;;;;;6346348;22;19999;-86
2023/04/16 08:22:47;;;;;;;0.10;0.10;;;10.60;99.90;;;;;;6344564;22;20010;-87
2023/04/16 08:25:13;;;;;;;0.00;0.00;;;10.20;99.90;;;;;;6344290;22;20004;-87
2023/04/16 08:27:39;;;;;;;0.10;0.10;;;10.30;99.90;;;;;;6343362;22;20056;-87
2023/04/16 08:30:05;;;;;;;0.00;0.00;;;10.20;99.90;;;;;;6346639;22;20002;-87
2023/04/16 08:32:31;;;;;;;0.00;0.00;;;10.10;99.90;;;;;;6344668;22;20002;-87
2023/04/16 08:34:57;;;;;;;0.00;0.00;;;10.20;99.90;;;;;;6344880;22;19994;-88
2023/04/16 08:37:22;;;;;;;0.03;0.03;;;10.10;99.90;;;;;;6343492;22;19999;-87
2023/04/16 08:39:47;;;;;;;0.10;0.10;;;10.00;99.90;;;;;;6344835;22;19999;-87
2023/04/16 08:42:31;;;;;;;0.10;0.10;;;10.10;99.90;;;;;;6344576;22;20002;-87
2023/04/16 08:45:17;;;;;;;0.10;0.10;;;10.20;99.90;;;;;;6371922;22;20429;-87
2023/04/16 08:47:47;;;;;;;0.00;0.00;;;10.10;99.90;;;;;;6347970;22;20460;-87
2023/04/16 08:50:27;;;;;;;0.10;0.10;;;10.10;99.90;;;;;;6344447;22;20002;-87
2023/04/16 08:53:17;;;;;;;0.00;0.00;;;10.20;99.90;;;;;;6344525;22;20003;-87
2023/04/16 08:55:45;;;;;;;;;;;10.20;99.90;;;;;;6346732;22;20002;-88
2023/04/16 08:58:18;;;;;;;0.00;0.00;;;10.20;99.90;;;;;;6343830;22;19904;-90
2023/04/16 09:00:47;;;;;;;0.00;0.00;;;10.10;99.90;;;;;;6344584;22;20014;-88
2023/04/16 09:03:13;;;;;;;0.10;0.10;;;11.20;99.90;;;;;;6344655;22;20055;-88
2023/04/16 09:05:38;;;;;;;0.10;0.10;;;10.10;99.90;;;;;;6344038;22;20358;-87
2023/04/16 09:08:05;;;;;;;0.00;0.00;;;9.90;99.90;;;;;;6343907;22;20546;-89
2023/04/16 09:10:31;;;;;;;0.00;0.00;;;9.90;99.90;;;;;;6344043;22;20038;-87
2023/04/16 09:12:56;;;;;;;0.10;0.10;;;9.90;99.90;;;;;;6341853;22;20003;-87
2023/04/16 09:15:24;;;;;;;0.10;0.10;;;9.80;99.90;;;;;;6343075;22;20056;-88
2023/04/16 09:17:50;;;;;;;0.10;0.10;;;9.80;99.90;;;;;;6342818;22;20002;-87
2023/04/16 09:20:15;;;;;;;0.10;0.10;;;9.80;99.90;;;;;;6372127;22;20017;-87
2023/04/16 09:22:42;;;;;;;0.10;0.10;;;9.80;99.90;;;;;;6344242;22;20010;-87
2023/04/16 09:25:09;;;;;;;0.10;0.10;;;9.90;99.90;;;;;;6373825;22;20009;-87
2023/04/16 09:27:35;;;;;;;0.10;0.10;;;10.20;99.90;;;;;;6344037;22;20002;-87
2023/04/16 09:30:02;;;;;;;0.10;0.10;;;10.10;99.90;;;;;;6345172;22;20063;-87
2023/04/16 09:32:28;;;;;;;0.10;0.10;;;10.10;99.90;;;;;;6344501;22;20077;-87
2023/04/16 09:34:56;;;;;;;0.10;0.10;;;10.20;99.90;;;;;;6344443;22;20002;-87
2023/04/16 09:37:22;;;;;;;0.00;0.00;;;10.30;99.90;;;;;;6340880;22;20033;-88
2023/04/16 09:39:56;;;;;;;0.10;0.10;;;10.40;99.90;;;;;;6344076;22;20055;-87
2023/04/16 09:42:30;;;;;;;0.10;0.10;;;10.30;99.90;;;;;;6343212;22;20081;-87
2023/04/16 09:44:57;;;;;;;0.00;0.00;;;10.40;99.90;;;;;;6343150;22;20060;-87
2023/04/16 09:47:39;;;;;;;0.00;0.00;;;10.50;99.90;;;;;;6345859;22;20010;-86
2023/04/16 09:50:05;;;;;;;0.00;0.00;;;10.50;99.90;;;;;;6344863;22;20010;-87
2023/04/16 09:52:34;;;;;;;0.00;0.00;;;10.70;99.90;;;;;;6342254;22;19999;-87
2023/04/16 09:55:00;;;;;;;0.10;0.10;;;10.70;99.90;;;;;;6344286;22;20364;-88
2023/04/16 09:57:26;;;;;;;0.00;0.00;;;10.80;99.90;;;;;;6344482;22;20246;-87
2023/04/16 10:00:01;;;;;;;0.00;0.00;;;10.90;99.90;;;;;;6344703;22;20009;-88
2023/04/16 10:02:28;;;;;;;0.03;0.03;;;10.90;99.90;;;;;;6343262;22;20038;-87
2023/04/16 10:04:54;;;;;;;0.10;0.10;;;11.00;99.90;;;;;;6344977;22;20360;-87
2023/04/16 10:07:20;;;;;;;0.00;0.00;;;11.00;99.90;;;;;;6345609;22;20009;-88
2023/04/16 10:09:47;;;;;;;0.00;0.00;;;11.00;99.90;;;;;;6343216;22;20009;-87
2023/04/16 10:12:13;;;;;;;0.00;0.00;;;11.00;99.90;;;;;;6343022;22;19998;-89
2023/04/16 10:14:40;;;;;;;0.00;0.00;;;11.00;99.90;;;;;;6344483;22;20002;-88
2023/04/16 10:17:07;;;;;;;0.00;0.00;;;11.00;99.90;;;;;;6342208;22;20017;-87
2023/04/16 10:19:34;;;;;;;0.00;0.00;;;;;;;;;;6343335;22;20014;-87
2023/04/16 10:22:00;;;;;;;0.00;0.00;;;10.70;99.90;;;;;;6339889;22;20020;-87
2023/04/16 10:24:26;;;;;;;0.00;0.00;;;;;;;;;;6345331;22;20037;-88
2023/04/16 10:26:52;;;;;;;0.00;0.00;;;11.40;99.90;;;;;;6343895;22;19998;-87
2023/04/16 10:29:22;;;;;;;0.00;0.00;;;10.80;99.90;;;;;;6343628;22;20003;-88
2023/04/16 10:31:48;;;;;;;;;;;10.90;99.90;;;;;;6344390;22;20006;-89
2023/04/16 10:34:15;;;;;;;0.00;0.00;;;;;;;;;;6343229;22;20327;-87
2023/04/16 10:36:40;;;;;;;0.10;0.10;;;10.80;99.90;;;;;;6344041;22;20008;-88
2023/04/16 10:39:11;;;;;;;0.10;0.10;;;10.90;99.90;;;;;;6371203;22;20062;-86
2023/04/16 10:41:37;;;;;;;0.00;0.00;;;;;;;;;;6343718;22;20341;-87
2023/04/16 10:44:11;;;;;;;0.00;0.00;;;11.00;99.90;;;;;;6343124;22;20013;-87
2023/04/16 10:46:42;;;;;;;0.00;0.00;;;10.90;99.90;;;;;;6343135;22;20013;-87
2023/04/16 10:49:19;;;;;;;0.00;0.00;;;10.80;99.90;;;;;;6343096;22;20056;-87
2023/04/16 10:51:59;;;;;;;0.00;0.00;;;10.80;99.90;;;;;;6342796;22;20045;-89
2023/04/16 10:54:33;;;;;;;0.10;0.10;;;10.50;99.90;;;;;;6344155;22;19998;-87
2023/04/16 10:57:03;;;;;;;0.10;0.10;;;10.50;99.90;;;;;;6343023;22;20648;-88
2023/04/16 10:59:34;;;;;;;0.00;0.00;;;10.40;99.90;;;;;;6344563;22;19999;-88
2023/04/16 12:11:55;;;;;;;0.00;0.00;;;;;;;;;;6363949;22;20015;-94
2023/04/16 12:14:22;;;;;;;0.00;0.00;;;11.10;99.90;;;;;;6359180;22;19982;-92
2023/04/16 12:16:48;;;;;;;0.00;0.00;;;;;;;;;;6362362;22;20022;-94
2023/04/16 12:19:14;;;;;;;0.00;0.00;;;11.20;99.90;;;;;;6364000;22;20021;-93
2023/04/16 12:21:45;;;;;;;0.00;0.00;;;11.10;99.90;;;;;;6365099;22;20014;-93
2023/04/16 12:24:23;;;;;;;0.10;0.10;;;11.10;99.90;;;;;;6364800;22;19991;-93
2023/04/16 12:26:56;;;;;;;0.00;0.00;;;11.30;99.90;;;;;;6363333;22;20073;-94
2023/04/16 12:29:24;;;;;;;0.00;0.00;;;11.50;99.90;;;;;;6362491;22;19991;-94
2023/04/16 12:31:51;;;;;;;0.00;0.00;;;11.60;99.90;;;;;;6364481;22;19999;-93
2023/04/16 12:34:17;;;;;;;0.00;0.00;;;;;;;;;;6361079;22;20003;-93
2023/04/16 12:36:44;;;;;;;0.00;0.00;;;11.60;99.90;;;;;;6362592;22;20025;-94
2023/04/16 12:39:10;;;;;;;0.00;0.00;;;;;;;;;;6358452;22;19991;-94
2023/04/16 12:41:37;;;;;;;0.00;0.00;;;;;;;;;;6362864;22;20006;-94
2023/04/16 12:44:11;;;;;;;0.00;0.00;;;12.00;99.90;;;;;;6364807;22;20089;-92
2023/04/16 12:46:41;;;;;;;0.00;0.00;;;11.90;99.90;;;;;;6364317;22;19986;-93
2023/04/16 12:49:08;;;;;;;0.00;0.00;;;12.30;99.90;;;;;;6364722;22;20007;-93
2023/04/16 12:51:34;;;;;;;0.00;0.00;;;12.60;99.90;;;;;;6363007;22;19998;-93
2023/04/16 12:54:00;;;;;;;0.10;0.10;;;;;;;;;;6364639;22;19990;-93
2023/04/16 12:56:26;;;;;;;0.00;0.00;;;;;;;;;;6364191;22;20002;-92
2023/04/16 12:58:53;;;;;;;0.00;0.00;;;;;;;;;;6362374;22;19995;-93
2023/04/16 13:01:19;;;;;;;0.00;0.00;;;;;;;;;;6365779;22;20032;-93
2023/04/16 13:03:45;;;;;;;0.00;0.00;;;;;;;;;;6365074;22;20036;-90
2023/04/16 13:06:13;;;;;;;0.00;0.00;;;12.60;99.90;;;;;;6365550;22;19991;-93
2023/04/16 13:08:39;;;;;;;0.00;0.00;;;;;;;;;;6366080;22;20039;-92
2023/04/16 13:11:05;;;;;;;0.00;0.00;;;;;;;;;;6364960;22;20013;-93
2023/04/16 13:13:31;;;;;;;0.00;0.00;;;;;;;;;;6361189;22;20003;-93
2023/04/16 13:15:57;;;;;;;0.00;0.00;;;;;;;;;;6364942;22;19991;-93
2023/04/16 13:18:25;;;;;;;0.00;0.00;;;12.20;99.90;;;;;;6365021;22;19998;-92
2023/04/16 13:20:51;;;;;;;0.00;0.00;;;;;;;;;;6365793;22;20018;-92
2023/04/16 13:23:17;;;;;;;0.00;0.00;;;;;;;;;;6364114;22;19987;-91
2023/04/16 13:25:43;;;;;;;0.00;0.00;;;;;;;;;;6365448;22;20029;-93
2023/04/16 13:28:09;;;;;;;0.00;0.00;;;;;;;;;;6365292;22;19994;-92
2023/04/16 13:30:35;;;;;;;0.00;0.00;;;;;;;;;;6362066;22;20075;-93
2023/04/16 13:33:01;;;;;;;0.00;0.00;;;;;;;;;;6365447;22;20075;-92
2023/04/16 13:35:27;;;;;;;0.00;0.00;;;;;;;;;;6361478;22;20019;-92
2023/04/16 13:37:53;;;;;;;0.00;0.00;;;;;;;;;;6362659;22;20016;-92
2023/04/16 13:40:19;;;;;;;0.00;0.00;;;;;;;;;;6364032;22;20009;-92
2023/04/16 13:42:45;;;;;;;0.00;0.00;;;;;;;;;;6364666;22;20041;-92
2023/04/16 13:45:11;;;;;;;0.00;0.00;;;;;;;;;;6363667;22;20581;-93
2023/04/16 13:47:41;;;;;;;0.00;0.00;;;13.10;99.90;;;;;;6364213;22;20404;-92
2023/04/16 13:50:07;;;;;;;0.00;0.00;;;;;;;;;;6365418;22;20002;-92
2023/04/16 13:52:35;;;;;;;0.00;0.00;;;;;;;;;;6364233;22;20054;-92
2023/04/16 13:55:01;;;;;;;0.03;0.03;;;;;;;;;;6365082;22;19991;-93
2023/04/16 13:57:27;;;;;;;0.00;0.00;;;13.20;99.90;;;;;;6364750;22;19997;-92
2023/04/16 13:59:53;;;;;;;0.00;0.00;;;;;;;;;;6364792;22;20008;-93
2023/04/16 14:02:20;;;;;;;0.00;0.00;;;;;;;;;;6364694;22;19999;-91
2023/04/16 14:04:45;;;;;;;0.00;0.00;;;;;;;;;;6364766;22;20067;-92
2023/04/16 14:07:11;;;;;;;0.00;0.00;;;12.80;99.90;;;;;;6364158;22;20007;-93
2023/04/16 14:09:37;;;;;;;0.00;0.00;;;;;;;;;;6363827;22;20003;-94
2023/04/16 14:12:02;;;;;;;0.00;0.00;;;13.20;99.90;;;;;;6337987;22;20036;-93
2023/04/16 14:14:28;;;;;;;0.00;0.00;;;13.30;99.90;;;;;;6337860;22;20017;-93
2023/04/16 14:16:54;;;;;;;0.00;0.00;;;;;;;;;;6337731;22;19995;-93
2023/04/16 14:19:20;;;;;;;0.00;0.00;;;;;;;;;;6338006;22;19987;-91
2023/04/16 14:21:46;;;;;;;0.00;0.00;;;;;;;;;;6336357;22;19995;-94
2023/04/16 14:24:12;;;;;;;0.00;0.00;;;;;;;;;;6330046;22;20336;-93
2023/04/16 14:26:38;;;;;;;0.00;0.00;;;;;;;;;;6335918;22;19994;-92
2023/04/16 14:29:05;;;;;;;0.00;0.00;;;;;;;;;;6337186;22;20058;-93